Time;durP1;ratioP1;P1;durP2;ratioP2;P2;SDS_P1;SDS_P2;PMS_P1;PMS_P2;Temp;Humidity;BMP_temperature;BMP_pressure;BME280_temperature;BME280_humidity;BME280_pressure;Samples;Min_cycle;Max_cycle;Signal;HPM_P1;HPM_P2
2022/04/11 00:02:19;;;;;;;;;;;;;;;5.35;59.48;100103.78;4424937;32;20362;-92
2022/04/11 00:04:44;;;;;;;;;;;;;;;5.27;59.48;100103.81;4425462;32;20000;-90
2022/04/11 00:07:10;;;;;;;;;;;;;;;5.24;59.47;100101.25;4424562;32;20333;-90
2022/04/11 00:09:35;;;;;;;;;;;;;;;5.22;59.47;100100.41;4425284;32;19987;-91
2022/04/11 00:12:00;;;;;;;;;;;;;;;5.29;59.48;100106.38;4426200;32;20001;-89
2022/04/11 00:14:25;;;;;;;;;;;;;;;5.11;59.47;100103.03;4428112;32;19993;-90
2022/04/11 00:16:51;;;;;;;;;;;;;;;5.22;59.47;100111.59;4416709;32;20272;-93
2022/04/11 00:19:16;;;;;;;;;;;;;;;5.28;59.48;100109.84;4426143;32;19974;-92
2022/04/11 00:21:41;;;;;;;;;;;;;;;5.32;59.49;100106.38;4421765;32;20016;-93
2022/04/11 00:24:07;;;;;;;;;;;;;;;5.16;59.47;100113.31;4415506;32;20286;-93
2022/04/11 00:26:32;;;;;;;;;;;;;;;5.29;59.47;100120.16;4423012;32;19973;-88
2022/04/11 00:28:57;;;;;;;;;;;;;;;5.08;59.46;100110.78;4423807;32;19993;-91
2022/04/11 00:31:22;;;;;;;;;;;;;;;5.05;59.46;100113.38;4412533;32;20017;-90
2022/04/11 00:33:50;;;;;;;;;;;;;;;5.07;59.47;100119.38;4425622;32;20089;-91
2022/04/11 00:36:16;;;;;;;;;;;;;;;4.88;59.46;100125.47;4412977;32;20366;-88
2022/04/11 00:38:41;;;;;;;;;;;;;;;4.94;59.46;100126.28;4425173;32;19977;-90
2022/04/11 00:41:06;;;;;;;;;;;;;;;5.08;59.46;100118.53;4425054;32;20005;-89
2022/04/11 00:43:35;;;;;;;;;;;;;;;4.86;59.45;100122.88;4438360;32;19996;-91
2022/04/11 00:46:01;;;;;;;;;;;;;;;4.85;59.45;100123.75;4439015;32;19999;-92
2022/04/11 00:48:26;;;;;;;;;;;;;;;4.88;59.46;100123.75;4438664;32;19977;-90
2022/04/11 00:50:53;;;;;;;;;;;;;;;4.98;59.46;100128.87;4437644;32;20016;-90
2022/04/11 00:53:55;;;;;;;;;;;;;;;;;;;;;
2022/04/11 00:56:39;;;;;;;;;;;;;;;;;;;;;
2022/04/11 00:59:05;;;;;;;;;;;;;;;4.79;59.45;100133.25;4437694;32;34602;-90
2022/04/11 01:01:30;;;;;;;;;;;;;;;4.93;59.45;100134.03;4438417;32;20276;-91
2022/04/11 01:03:56;;;;;;;;;;;;;;;4.86;59.45;100127.19;4425621;32;20070;-89
2022/04/11 01:06:21;;;;;;;;;;;;;;;4.87;59.46;100129.75;4438931;32;20002;-92
2022/04/11 01:08:46;;;;;;;;;;;;;;;4.89;59.46;100132.34;4438832;32;19977;-92
2022/04/11 01:11:14;;;;;;;;;;;;;;;4.88;59.46;100131.47;4426186;32;19985;-92
2022/04/11 01:13:41;;;;;;;;;;;;;;;4.89;59.46;100132.34;4439136;32;20011;-91
2022/04/11 01:16:06;;;;;;;;;;;;;;;4.77;59.44;100135.81;4438525;32;19977;-90
2022/04/11 01:18:34;;;;;;;;;;;;;;;4.88;59.46;100128.91;4424639;32;20039;-87
2022/04/11 01:21:00;;;;;;;;;;;;;;;4.85;59.45;100131.50;4425146;32;20031;-90
2022/04/11 01:23:25;;;;;;;;;;;;;;;4.77;59.45;100127.22;4424928;32;20089;-91
2022/04/11 01:25:53;;;;;;;;;;;;;;;4.73;59.45;100133.22;4425339;32;20017;-90
2022/04/11 01:28:19;;;;;;;;;;;;;;;4.66;59.44;100141.84;4424927;32;19988;-91
2022/04/11 01:30:44;;;;;;;;;;;;;;;4.96;59.46;100139.19;4437684;32;20005;-90
2022/04/11 01:33:16;;;;;;;;;;;;;;;4.62;59.44;100144.44;4425240;32;20591;-88
2022/04/11 01:35:41;;;;;;;;;;;;;;;4.87;59.46;100139.22;4437685;32;20034;-90
2022/04/11 01:38:06;;;;;;;;;;;;;;;4.75;59.45;100144.44;4437883;32;20270;-90
2022/04/11 01:40:32;;;;;;;;;;;;;;;4.82;59.45;100153.84;4437458;32;20286;-91
2022/04/11 01:42:57;;;;;;;;;;;;;;;4.73;59.45;100159.00;4438559;32;20011;-92
2022/04/11 01:45:22;;;;;;;;;;;;;;;4.79;59.46;100159.03;4438428;32;20015;-91
2022/04/11 01:47:47;;;;;;;;;;;;;;;4.75;59.45;100160.75;4437668;32;19985;-90
2022/04/11 01:50:13;;;;;;;;;;;;;;;4.75;59.45;100159.91;4436889;32;20040;-90
2022/04/11 01:52:38;;;;;;;;;;;;;;;4.66;59.45;100162.47;4439711;32;20016;-94
2022/04/11 01:55:03;;;;;;;;;;;;;;;4.49;59.44;100168.50;4449500;32;20019;-96
2022/04/11 02:00:04;;;;;;;;;;;;;;;4.91;59.45;100166.72;4691818;26;20052;-93
2022/04/11 02:02:29;;;;;;;;;;;;;;;4.62;59.44;100164.19;4444968;32;19992;-90
2022/04/11 02:04:55;;;;;;;;;;;;;;;4.36;59.43;100169.37;4446410;32;20052;-94
2022/04/11 02:07:20;;;;;;;;;;;;;;;4.42;59.43;100166.78;4446166;32;20001;-95
2022/04/11 02:09:45;;;;;;;;;;;;;;;4.56;59.43;100165.06;4446428;32;20645;-94
2022/04/11 02:12:10;;;;;;;;;;;;;;;4.57;59.44;100174.53;4446886;32;20040;-93
2022/04/11 02:14:36;;;;;;;;;;;;;;;4.37;59.43;100165.09;4447391;32;19981;-94
2022/04/11 02:17:01;;;;;;;;;;;;;;;4.43;59.43;100177.97;4447967;32;20067;-94
2022/04/11 02:19:26;;;;;;;;;;;;;;;4.39;59.43;100169.37;4445909;32;19989;-94
2022/04/11 02:21:51;;;;;;;;;;;;;;;4.31;59.42;100174.53;4445733;32;20305;-93
2022/04/11 02:24:17;;;;;;;;;;;;;;;4.34;59.42;100173.69;4445736;32;19977;-94
2022/04/11 02:26:42;;;;;;;;;;;;;;;4.42;59.43;100179.69;4445421;32;19976;-93
2022/04/11 02:29:07;;;;;;;;;;;;;;;4.45;59.43;100176.25;4458018;32;19999;-94
2022/04/11 02:31:32;;;;;;;;;;;;;;;4.44;59.43;100185.69;4445169;32;20013;-93
2022/04/11 02:33:58;;;;;;;;;;;;;;;4.38;59.42;100183.13;4457682;32;19973;-94
2022/04/11 02:36:23;;;;;;;;;;;;;;;4.27;59.42;100180.56;4445024;32;20019;-94
2022/04/11 02:38:48;;;;;;;;;;;;;;;4.35;59.42;100182.25;4445249;32;20012;-94
2022/04/11 02:41:14;;;;;;;;;;;;;;;4.38;59.42;100188.28;4458026;32;19993;-93
2022/04/11 02:43:39;;;;;;;;;;;;;;;4.20;59.42;100181.38;4457806;32;20014;-91
2022/04/11 02:46:05;;;;;;;;;;;;;;;4.16;59.41;100189.13;4443670;32;19987;-91
2022/04/11 02:48:30;;;;;;;;;;;;;;;4.30;59.42;100185.72;4443535;32;20035;-90
2022/04/11 02:50:55;;;;;;;;;;;;;;;4.23;59.41;100185.69;4442466;32;22032;-89
2022/04/11 02:53:20;;;;;;;;;;;;;;;4.12;59.40;100190.84;4441614;32;19996;-89
2022/04/11 02:55:45;;;;;;;;;;;;;;;3.94;59.40;100195.97;4442409;32;19988;-90
2022/04/11 02:58:11;;;;;;;;;;;;;;;4.11;59.41;100196.00;4442221;32;19977;-89
2022/04/11 03:00:36;;;;;;;;;;;;;;;4.06;59.41;100206.28;4454718;32;28843;-89
2022/04/11 03:03:01;;;;;;;;;;;;;;;4.01;59.40;100201.12;4455233;32;20017;-89
2022/04/11 03:05:26;;;;;;;;;;;;;;;4.10;59.41;100202.00;4455515;32;20033;-90
2022/04/11 03:07:52;;;;;;;;;;;;;;;4.18;59.41;100206.28;4442219;32;19993;-89
2022/04/11 03:10:17;;;;;;;;;;;;;;;4.05;59.41;100212.31;4442160;32;20265;-89
2022/04/11 03:12:43;;;;;;;;;;;;;;;4.09;59.40;100202.87;4455081;32;19988;-92
2022/04/11 03:15:09;;;;;;;;;;;;;;;4.03;59.40;100206.28;4443145;32;19988;-91
2022/04/11 03:17:34;;;;;;;;;;;;;;;4.13;59.41;100212.31;4443233;32;19989;-91
2022/04/11 03:19:59;;;;;;;;;;;;;;;4.20;59.42;100207.16;4456245;32;19989;-91
2022/04/11 03:22:24;;;;;;;;;;;;;;;4.05;59.40;100206.28;4443081;32;20010;-92
2022/04/11 03:24:49;;;;;;;;;;;;;;;4.13;59.42;100208.00;4443064;32;19985;-90
2022/04/11 03:27:15;;;;;;;;;;;;;;;4.07;59.41;100217.47;4443908;32;20045;-93
2022/04/11 03:29:40;;;;;;;;;;;;;;;4.05;59.40;100214.03;4444310;32;20182;-93
2022/04/11 03:32:05;;;;;;;;;;;;;;;4.10;59.41;100209.72;4443618;32;22673;-93
2022/04/11 03:34:31;;;;;;;;;;;;;;;4.12;59.42;100218.31;4443791;32;20037;-94
2022/04/11 03:36:56;;;;;;;;;;;;;;;4.26;59.41;100214.06;4443939;32;19993;-91
2022/04/11 03:39:21;;;;;;;;;;;;;;;4.17;59.41;100216.59;4443809;32;20050;-92
2022/04/11 03:41:46;;;;;;;;;;;;;;;4.19;59.41;100222.63;4442868;32;23426;-91
2022/04/11 03:44:11;;;;;;;;;;;;;;;4.17;59.41;100230.34;4455693;32;20039;-90
2022/04/11 03:46:37;;;;;;;;;;;;;;;3.97;59.41;100238.03;4442287;32;25329;-90
2022/04/11 03:49:03;;;;;;;;;;;;;;;4.00;59.40;100229.44;4442454;32;20036;-91
2022/04/11 03:51:28;;;;;;;;;;;;;;;4.20;59.42;100234.63;4442492;32;20039;-90
2022/04/11 03:53:53;;;;;;;;;;;;;;;3.88;59.39;100232.00;4442918;32;20025;-92
2022/04/11 03:56:18;;;;;;;;;;;;;;;3.76;59.38;100242.25;4443643;32;19985;-92
2022/04/11 03:58:44;;;;;;;;;;;;;;;3.82;59.39;100248.31;4443555;32;19989;-93
2022/04/11 04:01:09;;;;;;;;;;;;;;;3.98;59.41;100247.47;4442831;32;19991;-89
2022/04/11 04:03:35;;;;;;;;;;;;;;;3.88;59.39;100250.03;4455698;32;20303;-91
2022/04/11 04:06:00;;;;;;;;;;;;;;;4.07;59.41;100245.78;4444865;32;20008;-91
2022/04/11 04:08:25;;;;;;;;;;;;;;;4.17;59.41;100248.38;4445529;32;19996;-93
2022/04/11 04:10:50;;;;;;;;;;;;;;;4.03;59.40;100249.22;4445341;32;26982;-91
2022/04/11 04:13:16;;;;;;;;;;;;;;;3.92;59.40;100252.62;4445782;32;20000;-93
2022/04/11 04:15:42;;;;;;;;;;;;;;;3.99;59.40;100254.34;4444750;32;20450;-95
2022/04/11 04:18:07;;;;;;;;;;;;;;;4.06;59.41;100250.09;4446166;32;20326;-93
2022/04/11 04:20:32;;;;;;;;;;;;;;;4.09;59.41;100254.37;4444626;32;19989;-89
2022/04/11 04:22:57;;;;;;;;;;;;;;;4.09;59.41;100259.53;4443895;32;19988;-91
2022/04/11 04:25:23;;;;;;;;;;;;;;;4.08;59.41;100262.97;4444739;32;20101;-92
2022/04/11 04:27:48;;;;;;;;;;;;;;;4.22;59.42;100266.41;4445025;32;20011;-93
2022/04/11 04:30:13;;;;;;;;;;;;;;;4.44;59.43;100268.16;4445395;32;20036;-92
2022/04/11 04:32:39;;;;;;;;;;;;;;;4.17;59.42;100269.00;4445325;32;24663;-92
2022/04/11 04:35:06;;;;;;;;;;;;;;;4.37;59.43;100274.19;4458436;32;20038;-93
2022/04/11 04:37:31;;;;;;;;;;;;;;;4.51;59.43;100269.91;4458587;32;19993;-92
2022/04/11 04:39:57;;;;;;;;;;;;;;;4.54;59.43;100269.91;4444560;32;20257;-92
2022/04/11 04:42:22;;;;;;;;;;;;;;;4.62;59.44;100272.50;4444545;32;20015;-92
2022/04/11 04:44:48;;;;;;;;;;;;;;;4.70;59.44;100264.75;4445043;32;20321;-92
2022/04/11 04:47:15;;;;;;;;;;;;;;;4.82;59.45;100268.19;4445020;32;23487;-92
2022/04/11 04:49:40;;;;;;;;;;;;;;;4.69;59.44;100270.75;4445907;32;19986;-93
2022/04/11 04:52:06;;;;;;;;;;;;;;;4.81;59.45;100275.94;4444346;32;20331;-90
2022/04/11 04:54:31;;;;;;;;;;;;;;;4.83;59.45;100282.81;4445032;32;19988;-91
2022/04/11 04:56:56;;;;;;;;;;;;;;;4.93;59.45;100283.66;4444455;32;19981;-92
2022/04/11 04:59:22;;;;;;;;;;;;;;;5.06;59.46;100287.97;4444324;32;20798;-92
2022/04/11 05:01:47;;;;;;;;;;;;;;;5.10;59.47;100275.91;4456899;32;20018;-91
2022/04/11 05:04:12;;;;;;;;;;;;;;;5.08;59.46;100273.34;4444728;32;19988;-91
2022/04/11 05:06:37;;;;;;;;;;;;;;;5.05;59.46;100278.50;4444347;32;20053;-92
2022/04/11 05:09:03;;;;;;;;;;;;;;;5.26;59.48;100279.34;4443906;32;20294;-92
2022/04/11 05:11:28;;;;;;;;;;;;;;;5.40;59.49;100285.31;4444649;32;20605;-92
2022/04/11 05:13:53;;;;;;;;;;;;;;;5.54;59.49;100281.84;4444309;32;19993;-94
2022/04/11 05:16:18;;;;;;;;;;;;;;;5.57;59.49;100282.69;4443360;32;20003;-92
2022/04/11 05:18:44;;;;;;;;;;;;;;;5.76;59.50;100286.94;4444483;32;20141;-91
2022/04/11 05:21:09;;;;;;;;;;;;;;;5.66;59.49;100288.66;4444396;32;19973;-92
2022/04/11 05:23:35;;;;;;;;;;;;;;;5.93;59.52;100281.72;4444005;32;20003;-92
2022/04/11 05:26:01;;;;;;;;;;;;;;;6.05;59.51;100277.34;4444053;32;20038;-91
2022/04/11 05:28:26;;;;;;;;;;;;;;;6.18;59.52;100272.13;4456765;32;19969;-92
2022/04/11 05:30:51;;;;;;;;;;;;;;;6.36;59.54;100282.31;4457139;32;20050;-92
2022/04/11 05:33:16;;;;;;;;;;;;;;;6.30;59.53;100283.22;4443521;32;20007;-89
2022/04/11 05:35:42;;;;;;;;;;;;;;;6.46;59.54;100282.28;4443951;32;20351;-92
2022/04/11 05:38:07;;;;;;;;;;;;;;;6.61;59.55;100280.44;4443782;32;21619;-91
2022/04/11 05:40:33;;;;;;;;;;;;;;;6.80;59.56;100278.56;4444379;32;20044;-91
2022/04/11 05:42:58;;;;;;;;;;;;;;;6.78;59.56;100288.94;4457695;32;19989;-90
2022/04/11 05:45:23;;;;;;;;;;;;;;;6.89;59.56;100284.53;4443963;32;20243;-91
2022/04/11 05:47:49;;;;;;;;;;;;;;;7.01;59.57;100289.59;4443804;32;20025;-92
2022/04/11 05:50:14;;;;;;;;;;;;;;;7.23;59.58;100284.22;4443939;32;19976;-92
2022/04/11 05:52:39;;;;;;;;;;;;;;;7.39;59.58;100290.97;4444704;32;20011;-91
2022/04/11 05:55:05;;;;;;;;;;;;;;;7.39;59.60;100286.66;4443760;32;20239;-90
2022/04/11 05:57:30;;;;;;;;;;;;;;;7.26;59.59;100291.94;4444051;32;20261;-92
2022/04/11 05:59:55;;;;;;;;;;;;;;;7.36;59.59;100291.00;4443963;32;19992;-90
2022/04/11 06:02:20;;;;;;;;;;;;;;;7.57;59.61;100288.19;4457543;32;20030;-91
2022/04/11 06:04:46;;;;;;;;;;;;;;;7.48;59.60;100290.84;4444967;32;20023;-92
2022/04/11 06:07:11;;;;;;;;;;;;;;;7.40;59.60;100287.50;4444209;32;21944;-91
2022/04/11 06:09:36;;;;;;;;;;;;;;;7.49;59.60;100286.53;4443228;32;24384;-91
2022/04/11 06:12:01;;;;;;;;;;;;;;;7.59;59.60;100281.25;4443970;32;20028;-91
2022/04/11 06:14:27;;;;;;;;;;;;;;;7.55;59.61;100276.09;4443594;32;20004;-91
2022/04/11 06:16:52;;;;;;;;;;;;;;;7.61;59.61;100279.50;4443216;32;20027;-91
2022/04/11 06:19:17;;;;;;;;;;;;;;;7.72;59.61;100281.09;4443315;32;19996;-92
2022/04/11 06:21:42;;;;;;;;;;;;;;;7.66;59.61;100272.53;4443843;32;20004;-90
2022/04/11 06:24:08;;;;;;;;;;;;;;;7.64;59.60;100274.28;4443710;32;20041;-92
2022/04/11 06:26:33;;;;;;;;;;;;;;;7.79;59.62;100272.34;4442911;32;19997;-91
2022/04/11 06:28:58;;;;;;;;;;;;;;;7.93;59.63;100263.53;4442948;32;19997;-91
2022/04/11 06:31:23;;;;;;;;;;;;;;;8.06;59.63;100268.59;4442442;32;23332;-92
2022/04/11 06:33:49;;;;;;;;;;;;;;;7.85;59.63;100272.31;4443136;32;20349;-92
2022/04/11 06:36:14;;;;;;;;;;;;;;;8.17;59.64;100272.72;4443422;32;20030;-91
2022/04/11 06:38:39;;;;;;;;;;;;;;;8.34;59.65;100269.06;4442404;32;20809;-90
2022/04/11 06:41:04;;;;;;;;;;;;;;;8.41;59.65;100271.53;4455732;32;19996;-91
2022/04/11 06:43:30;;;;;;;;;;;;;;;8.59;59.67;100266.09;4443668;32;20069;-92
2022/04/11 06:45:55;;;;;;;;;;;;;;;8.57;59.66;100262.66;4442460;32;19985;-90
2022/04/11 06:48:20;;;;;;;;;;;;;;;8.48;59.65;100270.56;4443275;32;20298;-92
2022/04/11 06:50:46;;;;;;;;;;;;;;;8.47;59.65;100279.22;4441626;32;20023;-90
2022/04/11 06:53:13;;;;;;;;;;;;;;;8.46;59.66;100274.94;4442090;32;19996;-89
2022/04/11 06:55:38;;;;;;;;;;;;;;;8.61;59.66;100279.03;4442136;32;19989;-90
2022/04/11 06:58:04;;;;;;;;;;;;;;;8.71;59.67;100278.00;4442268;32;20016;-90
2022/04/11 07:00:29;;;;;;;;;;;;;;;8.68;59.67;100277.19;4442262;32;19977;-92
2022/04/11 07:02:54;;;;;;;;;;;;;;;8.91;59.68;100282.88;4442093;32;20012;-91
2022/04/11 07:05:20;;;;;;;;;;;;;;;8.92;59.68;100280.25;4455178;32;20036;-90
2022/04/11 07:07:45;;;;;;;;;;;;;;;9.04;59.68;100278.34;4455362;32;20325;-90
2022/04/11 07:10:10;;;;;;;;;;;;;;;9.25;59.69;100282.31;4442460;32;20020;-93
2022/04/11 07:12:39;;;;;;;;;;;;;;;9.45;59.71;100290.56;4442266;32;20016;-91
2022/04/11 07:15:05;;;;;;;;;;;;;;;9.38;59.70;100291.56;4455298;32;20029;-91
2022/04/11 07:17:30;;;;;;;;;;;;;;;9.50;59.72;100292.22;4442216;32;20105;-90
2022/04/11 07:19:56;;;;;;;;;;;;;;;9.43;59.72;100294.94;4455191;32;20000;-91
2022/04/11 07:22:21;;;;;;;;;;;;;;;9.54;59.71;100293.00;4455689;32;20008;-91
2022/04/11 07:24:46;;;;;;;;;;;;;;;9.33;59.70;100294.25;4455876;32;20063;-91
2022/04/11 07:27:12;;;;;;;;;;;;;;;9.37;59.70;100280.31;4441929;32;20038;-90
2022/04/11 07:29:37;;;;;;;;;;;;;;;9.59;59.72;100285.09;4442483;32;20365;-90
2022/04/11 07:32:03;;;;;;;;;;;;;;;9.72;59.73;100282.25;4442418;32;20014;-89
2022/04/11 07:34:28;;;;;;;;;;;;;;;9.83;59.73;100280.28;4442047;32;19981;-92
2022/04/11 07:36:54;;;;;;;;;;;;;;;9.97;59.74;100285.22;4442621;32;20347;-90
2022/04/11 07:39:20;;;;;;;;;;;;;;;10.06;59.75;100277.19;4454289;32;20041;-90
2022/04/11 07:41:45;;;;;;;;;;;;;;;9.95;59.74;100279.19;4442077;32;20035;-90
2022/04/11 07:44:11;;;;;;;;;;;;;;;9.89;59.73;100276.69;4441924;32;20015;-89
2022/04/11 07:46:36;;;;;;;;;;;;;;;9.87;59.73;100282.81;4442021;32;20001;-90
2022/04/11 07:49:01;;;;;;;;;;;;;;;10.02;59.75;100275.56;4455127;32;19977;-93
2022/04/11 07:51:26;;;;;;;;;;;;;;;9.94;59.75;100274.87;4442783;32;19989;-93
2022/04/11 07:53:52;;;;;;;;;;;;;;;10.22;59.75;100269.09;4442470;32;20064;-91
2022/04/11 07:56:17;;;;;;;;;;;;;;;10.35;59.76;100271.37;4442692;32;20305;-91
2022/04/11 07:58:42;;;;;;;;;;;;;;;10.48;59.77;100277.16;4443712;32;20017;-93
2022/04/11 08:01:07;;;;;;;;;;;;;;;10.48;59.77;100276.31;4442926;32;20375;-92
2022/04/11 08:03:33;;;;;;;;;;;;;;;10.59;59.77;100275.16;4455434;32;19972;-92
2022/04/11 08:05:58;;;;;;;;;;;;;;;10.60;59.77;100269.06;4441456;32;20030;-92
2022/04/11 08:08:23;;;;;;;;;;;;;;;10.67;59.78;100270.66;4441696;32;20037;-90
2022/04/11 08:10:48;;;;;;;;;;;;;;;10.81;59.78;100274.66;4441830;32;20043;-93
2022/04/11 08:13:14;;;;;;;;;;;;;;;10.90;59.79;100275.28;4455444;32;20298;-92
2022/04/11 08:15:39;;;;;;;;;;;;;;;10.98;59.79;100273.34;4442422;32;19996;-91
2022/04/11 08:18:06;;;;;;;;;;;;;;;11.00;59.79;100275.91;4442327;32;20092;-91
2022/04/11 08:20:32;;;;;;;;;;;;;;;11.29;59.81;100281.22;4442265;32;19965;-92
2022/04/11 08:22:57;;;;;;;;;;;;;;;11.35;59.81;100272.38;4455265;32;19969;-92
2022/04/11 08:25:23;;;;;;;;;;;;;;;11.00;59.79;100278.50;4442279;32;19980;-92
2022/04/11 08:27:48;;;;;;;;;;;;;;;10.93;59.79;100282.16;4442085;32;20001;-91
2022/04/11 08:30:13;;;;;;;;;;;;;;;11.07;59.79;100277.44;4441917;32;19997;-92
2022/04/11 08:32:39;;;;;;;;;;;;;;;11.32;59.82;100275.91;4441945;32;19988;-92
2022/04/11 08:35:05;;;;;;;;;;;;;;;11.39;59.82;100276.62;4442079;32;20019;-91
2022/04/11 08:37:30;;;;;;;;;;;;;;;11.41;59.82;100273.97;4441720;32;19996;-89
2022/04/11 08:39:55;;;;;;;;;;;;;;;11.49;59.82;100270.25;4441302;32;20039;-91
2022/04/11 08:42:23;;;;;;;;;;;;;;;11.71;59.84;100282.69;4441477;32;19999;-91
2022/04/11 08:44:49;;;;;;;;;;;;;;;11.60;59.84;100277.78;4454739;32;20923;-91
2022/04/11 08:47:15;;;;;;;;;;;;;;;11.77;59.84;100265.13;4441502;32;20011;-92
2022/04/11 08:49:40;;;;;;;;;;;;;;;11.87;59.84;100277.03;4454244;32;20000;-90
2022/04/11 08:52:05;;;;;;;;;;;;;;;11.97;59.86;100268.03;4456219;32;19985;-90
2022/04/11 08:54:31;;;;;;;;;;;;;;;11.93;59.84;100261.19;4443142;32;20021;-89
2022/04/11 08:56:56;;;;;;;;;;;;;;;12.15;59.86;100261.41;4442802;32;20008;-91
2022/04/11 08:59:21;;;;;;;;;;;;;;;12.24;59.87;100252.44;4443216;32;20003;-89
2022/04/11 09:01:46;;;;;;;;;;;;;;;12.44;59.88;100254.44;4456320;32;20300;-92
2022/04/11 09:04:12;;;;;;;;;;;;;;;12.28;59.86;100256.66;4443332;32;20032;-91
2022/04/11 09:06:37;;;;;;;;;;;;;;;12.39;59.87;100249.38;4443130;32;20223;-92
2022/04/11 09:09:02;;;;;;;;;;;;;;;12.57;59.89;100259.25;4456319;32;19991;-92
2022/04/11 09:11:36;;;;;;;;;;;;;;;12.66;59.89;100244.16;4443346;32;19997;-93
2022/04/11 09:14:02;;;;;;;;;;;;;;;12.79;59.89;100246.34;4443614;32;19983;-92
2022/04/11 09:16:28;;;;;;;;;;;;;;;12.80;59.89;100242.81;4443452;32;20039;-92
2022/04/11 09:18:54;;;;;;;;;;;;;;;12.81;59.90;100247.13;4443721;32;20036;-92
2022/04/11 09:21:20;;;;;;;;;;;;;;;12.83;59.90;100241.84;4443028;32;19980;-91
2022/04/11 09:23:46;;;;;;;;;;;;;;;12.93;59.90;100247.63;4456962;32;19976;-91
2022/04/11 09:26:21;;;;;;;;;;;;;;;13.00;59.91;100242.12;4443890;32;19993;-91
2022/04/11 09:28:59;;;;;;;;;;;;;;;13.12;59.92;100244.34;4443256;32;20008;-90
2022/04/11 09:31:25;;;;;;;;;;;;;;;13.19;59.93;100245.00;4455453;32;19973;-91
2022/04/11 09:33:50;;;;;;;;;;;;;;;13.21;59.92;100241.41;4456738;32;20003;-92
2022/04/11 09:36:16;;;;;;;;;;;;;;;13.09;59.91;100241.81;4443705;32;20322;-91
2022/04/11 09:38:41;;;;;;;;;;;;;;;13.18;59.91;100245.91;4457087;32;20007;-90
2022/04/11 09:41:06;;;;;;;;;;;;;;;13.25;59.92;100234.34;4456645;32;19973;-94
2022/04/11 09:43:32;;;;;;;;;;;;;;;13.06;59.91;100246.31;4456521;32;20409;-92
2022/04/11 09:46:01;;;;;;;;;;;;;;;13.07;59.92;100238.41;4456562;32;20004;-91
2022/04/11 09:48:27;;;;;;;;;;;;;;;13.27;59.93;100229.06;4443374;32;20034;-91
2022/04/11 09:50:53;;;;;;;;;;;;;;;13.18;59.93;100225.84;4444389;32;20063;-90
2022/04/11 09:53:22;;;;;;;;;;;;;;;13.26;59.92;100235.19;4471730;32;20332;-92
2022/04/11 09:55:48;;;;;;;;;;;;;;;13.23;59.92;100237.91;4444964;32;20116;-91
2022/04/11 09:58:13;;;;;;;;;;;;;;;13.21;59.92;100230.97;4444775;32;20005;-91
2022/04/11 10:00:40;;;;;;;;;;;;;;;13.60;59.94;100237.44;4444126;32;19985;-91
2022/04/11 10:03:05;;;;;;;;;;;;;;;14.01;59.96;100246.38;4442766;32;20006;-90
2022/04/11 10:05:31;;;;;;;;;;;;;;;13.39;59.93;100239.06;4443374;32;20318;-91
2022/04/11 10:07:57;;;;;;;;;;;;;;;12.98;59.91;100243.09;4456636;32;19984;-92
2022/04/11 10:10:22;;;;;;;;;;;;;;;12.84;59.90;100243.56;4443541;32;20046;-91
2022/04/11 10:12:48;;;;;;;;;;;;;;;13.02;59.91;100239.50;4443636;32;20518;-92
2022/04/11 10:15:14;;;;;;;;;;;;;;;13.16;59.91;100245.06;4456389;32;20132;-90
2022/04/11 10:17:39;;;;;;;;;;;;;;;13.35;59.93;100238.34;4443542;32;20028;-90
2022/04/11 10:20:05;;;;;;;;;;;;;;;13.69;59.95;100237.09;4455901;32;23316;-90
2022/04/11 10:22:30;;;;;;;;;;;;;;;13.72;59.96;100242.22;4443470;32;19977;-90
2022/04/11 10:25:01;;;;;;;;;;;;;;;13.52;59.94;100242.97;4443297;32;19992;-89
2022/04/11 10:27:26;;;;;;;;;;;;;;;13.52;59.94;100246.44;4456162;32;20337;-89
2022/04/11 10:29:52;;;;;;;;;;;;;;;13.54;59.93;100235.06;4456256;32;20023;-91
2022/04/11 10:32:18;;;;;;;;;;;;;;;13.85;59.95;100233.00;4443399;32;19992;-90
2022/04/11 10:35:03;;;;;;;;;;;;;;;14.34;59.99;100238.97;4443229;32;19985;-91
2022/04/11 10:37:48;;;;;;;;;;;;;;;14.22;59.98;100236.84;4456587;32;19993;-91
2022/04/11 10:40:17;;;;;;;;;;;;;;;14.27;59.98;100229.66;4470206;32;19969;-91
2022/04/11 10:43:10;;;;;;;;;;;;;;;14.66;60.00;100221.97;4456094;32;20124;-90
2022/04/11 10:45:42;;;;;;;;;;;;;;;15.09;60.02;100235.91;4470568;32;19989;-92
2022/04/11 10:48:08;;;;;;;;;;;;;;;14.79;60.01;100244.16;4443304;32;19989;-91
2022/04/11 10:50:34;;;;;;;;;;;;;;;14.42;59.99;100240.34;4443188;32;19984;-89
2022/04/11 10:53:22;;;;;;;;;;;;;;;14.24;59.97;100233.25;4470554;32;19991;-91
2022/04/11 10:55:54;;;;;;;;;;;;;;;13.93;59.96;100237.94;4443986;32;20003;-91
2022/04/11 10:58:20;;;;;;;;;;;;;;;13.57;59.93;100237.56;4456371;32;20011;-91
2022/04/11 11:00:45;;;;;;;;;;;;;;;13.80;59.96;100227.97;4442989;32;19988;-90
2022/04/11 11:03:13;;;;;;;;;;;;;;;13.75;59.95;100227.28;4443061;32;20376;-90
2022/04/11 11:05:43;;;;;;;;;;;;;;;13.96;59.97;100235.19;4443580;32;19993;-90
2022/04/11 11:08:17;;;;;;;;;;;;;;;13.83;59.96;100230.44;4443407;32;20228;-90
2022/04/11 11:10:49;;;;;;;;;;;;;;;13.65;59.95;100238.13;4456038;32;20315;-91
2022/04/11 11:13:29;;;;;;;;;;;;;;;13.66;59.95;100221.53;4442405;32;20593;-91
2022/04/11 11:15:55;;;;;;;;;;;;;;;14.07;59.97;100222.56;4443116;32;19997;-91
2022/04/11 11:18:20;;;;;;;;;;;;;;;14.34;59.99;100226.72;4456216;32;20125;-91
2022/04/11 11:20:50;;;;;;;;;;;;;;;14.32;59.99;100228.56;4443299;32;20345;-92
2022/04/11 11:23:35;;;;;;;;;;;;;;;14.49;59.99;100217.44;4443644;32;20612;-92
2022/04/11 11:26:06;;;;;;;;;;;;;;;14.21;59.98;100217.66;4469784;32;20326;-92
2022/04/11 11:28:32;;;;;;;;;;;;;;;13.96;59.97;100222.12;4456568;32;19993;-92
2022/04/11 11:30:57;;;;;;;;;;;;;;;13.94;59.97;100216.94;4443349;32;19977;-90
2022/04/11 11:33:22;;;;;;;;;;;;;;;13.99;59.96;100222.03;4443132;32;20048;-89
2022/04/11 11:35:49;;;;;;;;;;;;;;;14.13;59.97;100219.72;4442885;32;20012;-90
2022/04/11 11:38:14;;;;;;;;;;;;;;;13.91;59.96;100214.44;4456188;32;20045;-91
2022/04/11 11:40:49;;;;;;;;;;;;;;;13.99;59.96;100206.31;4456257;32;19988;-90
2022/04/11 11:43:15;;;;;;;;;;;;;;;14.15;59.97;100194.31;4442984;32;19985;-91
2022/04/11 11:45:41;;;;;;;;;;;;;;;14.45;59.99;100204.53;4442878;32;20001;-92
2022/04/11 11:48:25;;;;;;;;;;;;;;;14.85;60.01;100203.72;4443393;32;19981;-91
2022/04/11 11:50:50;;;;;;;;;;;;;;;14.88;60.02;100206.22;4456744;32;19995;-89
2022/04/11 11:53:16;;;;;;;;;;;;;;;14.64;60.01;100208.09;4444700;32;20230;-92
2022/04/11 11:55:51;;;;;;;;;;;;;;;14.72;60.01;100203.41;4444872;32;20302;-92
2022/04/11 11:58:16;;;;;;;;;;;;;;;14.53;60.00;100205.06;4456411;32;20013;-91
2022/04/11 12:00:44;;;;;;;;;;;;;;;14.32;59.99;100205.00;4455708;32;20335;-91
2022/04/11 12:05:57;;;;;;;;;;;;;;;14.36;59.99;100196.09;4458004;32;19995;-91
2022/04/11 12:08:22;;;;;;;;;;;;;;;14.65;60.01;100196.69;4442710;32;20316;-92
2022/04/11 12:10:48;;;;;;;;;;;;;;;14.80;60.02;100195.22;4442957;32;19989;-92
2022/04/11 12:13:22;;;;;;;;;;;;;;;14.82;60.01;100191.59;4442667;32;20331;-92
2022/04/11 12:15:48;;;;;;;;;;;;;;;14.91;60.02;100198.25;4442408;32;19989;-90
2022/04/11 12:18:15;;;;;;;;;;;;;;;14.83;60.01;100198.53;4442290;32;19980;-92
2022/04/11 12:20:40;;;;;;;;;;;;;;;14.92;60.03;100206.03;4442170;32;20320;-90
2022/04/11 12:23:10;;;;;;;;;;;;;;;14.87;60.02;100194.88;4455069;32;19991;-90
2022/04/11 12:25:36;;;;;;;;;;;;;;;14.62;60.00;100191.56;4441395;32;19989;-91
2022/04/11 12:28:14;;;;;;;;;;;;;;;14.55;60.00;100192.75;4444173;32;20023;-92
2022/04/11 12:30:44;;;;;;;;;;;;;;;14.75;60.01;100190.16;4444117;32;19980;-91
2022/04/11 12:33:10;;;;;;;;;;;;;;;15.22;60.03;100172.37;4444437;32;20334;-90
2022/04/11 12:35:36;;;;;;;;;;;;;;;15.29;60.04;100175.56;4444093;32;20028;-90
2022/04/11 12:38:07;;;;;;;;;;;;;;;15.27;60.04;100167.78;4418495;32;818600;-93
2022/04/11 12:40:53;;;;;;;;;;;;;;;15.63;60.06;100159.22;4457468;32;20044;-89
2022/04/11 12:43:18;;;;;;;;;;;;;;;16.06;60.08;100162.41;4456864;32;20589;-91
2022/04/11 12:45:43;;;;;;;;;;;;;;;15.27;60.04;100167.78;4444389;32;20033;-93
2022/04/11 12:48:09;;;;;;;;;;;;;;;14.88;60.02;100169.50;4444538;32;20042;-92